Fromissard ULM

FR-0371 · Tarn-et-Garonne, Occitanie, França

História da METAR FR-0371 · Fromissard ULM

Abaixo você vê METARs dos últimos dias. Selecione um ano para navegar pelos METARs mais antigos, a partir do ano 2007.

3 de dezembro de 2022

Hora Código Clima Temp. Visibilidade Tecto Vento METAR/SPECI
12:30
V
7 °C 10 km+ - 080° 080° 3 kt SPECI LFBO 031130Z AUTO 08003KT 020V120 CAVOK 07/01 Q1008 TEMPO BKN006
13:00
V
7 °C 10 km+ - 050° 050° 3 kt METAR LFBO 031200Z AUTO 05003KT 010V100 CAVOK 07/01 Q1008 NOSIG
12:30
V
7 °C 10 km+ - 080° 080° 3 kt METAR LFBO 031130Z AUTO 08003KT 020V120 CAVOK 07/01 Q1008 TEMPO BKN006
12:00
V
7 °C 10 km+ - 060° 060° 4 kt METAR LFBO 031100Z AUTO 06004KT 030V090 CAVOK 07/02 Q1009 TEMPO BKN006
11:30
V
7 °C 10 km+ - Var 000° 0 kt METAR LFBO 031030Z AUTO 00000KT CAVOK 07/02 Q1009 TEMPO BKN006
11:00
V
6 °C 10 km+ - Var Var 2 kt METAR LFBO 031000Z AUTO VRB02KT CAVOK 06/02 Q1009 TEMPO 4000 BR BKN006
10:30
V
5 °C 10 km+ - Var Var 3 kt METAR LFBO 030930Z AUTO VRB03KT CAVOK 05/02 Q1009 TEMPO 4000 BR BKN006
10:00
V
5 °C 10 km+ - 130° 130° 4 kt METAR LFBO 030900Z AUTO 13004KT CAVOK 05/03 Q1009 TEMPO 4000 BR OVC004
09:30
V
5 °C 8 km - Var Var 3 kt METAR LFBO 030830Z AUTO VRB03KT 8000 NSC 05/04 Q1010 TEMPO 4000 BR OVC004
09:00
M
4 °C 5 km 13.000 ft 150° 150° 2 kt METAR LFBO 030800Z AUTO 15002KT 5000 BR FEW008 SCT100 BKN130 04/03 Q1009 TEMPO 1200 BCFG VV///
08:30
M
4 °C 5 km - Var Var 1 kt METAR LFBO 030730Z AUTO VRB01KT 5000 BR NSC 04/03 Q1009 TEMPO 1200 BCFG VV///
08:00
M
4 °C 5 km - 090° 090° 3 kt METAR LFBO 030700Z AUTO 09003KT 5000 BR NSC 04/03 Q1009 TEMPO 1200 BCFG VV///
07:30
M
4 °C 6 km - 060° 060° 1 kt METAR LFBO 030630Z AUTO 06001KT 6000 NSC 04/03 Q1009 TEMPO 1200 BCFG VV///
07:00
M
4 °C 5 km - Var Var 2 kt METAR LFBO 030600Z AUTO VRB02KT 5000 BR NSC 04/03 Q1010 TEMPO 0600 FG VV///
06:30
M
5 °C 6 km - 090° 090° 2 kt METAR LFBO 030530Z AUTO 09002KT 6000 NSC 05/03 Q1009 TEMPO 0600 FG VV///
06:00
M
5 °C 6 km - 090° 090° 3 kt METAR LFBO 030500Z AUTO 09003KT 6000 NSC 05/03 Q1010 TEMPO 0600 FG VV///
05:30
M
5 °C 5 km - Var Var 2 kt METAR LFBO 030430Z AUTO VRB02KT 5000 BR NSC 05/04 Q1010 TEMPO 0600 FG VV///
05:00
M
5 °C 5 km - 090° 090° 4 kt METAR LFBO 030400Z AUTO 09004KT 5000 BR NSC 05/04 Q1010 TEMPO 0600 FG VV///
04:30
M
5 °C 5 km - Var Var 2 kt METAR LFBO 030330Z AUTO VRB02KT 5000 BR NSC 05/04 Q1010 TEMPO 0600 FG VV///
04:00
M
5 °C 5 km - 010° 010° 3 kt METAR LFBO 030300Z AUTO 01003KT 5000 BR NSC 05/04 Q1011 TEMPO 0600 FG VV///
03:30
M
5 °C 5 km - 040° 040° 3 kt METAR LFBO 030230Z AUTO 04003KT 350V070 5000 BR NSC 05/04 Q1011 TEMPO 0600 FG VV///
03:00
M
5 °C 6 km - Var Var 2 kt METAR LFBO 030200Z AUTO VRB02KT 6000 NSC 05/04 Q1011 TEMPO 0600 FG VV///
02:30
M
5 °C 6 km - 040° 040° 3 kt METAR LFBO 030130Z AUTO 04003KT 360V070 6000 NSC 05/04 Q1011 TEMPO 0600 FG VV///
02:00
M
5 °C 5 km - 020° 020° 3 kt METAR LFBO 030100Z AUTO 02003KT 5000 BR NSC 05/04 Q1011 TEMPO 0600 FG VV///
01:30
M
4 °C 5 km - 320° 320° 1 kt METAR LFBO 030030Z AUTO 32001KT 5000 BR NSC 04/03 Q1012 TEMPO 0600 FG VV///
01:00
M
5 °C 5 km - Var 000° 0 kt METAR LFBO 030000Z AUTO 00000KT 5000 BR NSC 05/04 Q1012 NOSIG
00:30
M
5 °C 6 km - Var 000° 0 kt METAR LFBO 022330Z AUTO 00000KT 6000 NSC 05/03 Q1012 NOSIG
00:00
M
5 °C 6 km 14.000 ft 170° 170° 2 kt METAR LFBO 022300Z AUTO 17002KT 6000 FEW049 OVC140 05/04 Q1012 NOSIG

2 de dezembro de 2022

Hora Código Clima Temp. Visibilidade Tecto Vento METAR/SPECI
23:30
M
5 °C 7 km - 180° 180° 3 kt METAR LFBO 022230Z AUTO 18003KT 7000 NSC 05/04 Q1013 NOSIG
23:00
M
5 °C 7 km - 180° 180° 4 kt METAR LFBO 022200Z AUTO 18004KT 7000 NSC 05/04 Q1013 NOSIG
22:30
M
5 °C 7 km - 200° 200° 4 kt METAR LFBO 022130Z AUTO 20004KT 7000 NSC 05/03 Q1013 NOSIG
22:00
V
6 °C 8 km 4.900 ft 190° 190° 5 kt METAR LFBO 022100Z AUTO 19005KT 8000 OVC049 06/04 Q1013 NOSIG
21:30
V
6 °C 9 km 4.800 ft 170° 170° 4 kt METAR LFBO 022030Z AUTO 17004KT 9000 OVC048 06/04 Q1013 NOSIG
21:00
V
6 °C 10 km+ 4.800 ft Var 000° 0 kt METAR LFBO 022000Z AUTO 00000KT 9999 OVC048 06/03 Q1014 NOSIG
20:30
V
6 °C 10 km+ 4.700 ft 010° 010° 3 kt METAR LFBO 021930Z AUTO 01003KT 340V040 9999 OVC047 06/03 Q1014 NOSIG
20:00
V
6 °C 10 km+ 4.600 ft Var Var 2 kt METAR LFBO 021900Z AUTO VRB02KT 9999 OVC046 06/03 Q1014 NOSIG
19:30
V
6 °C 10 km+ 4.700 ft 020° 020° 1 kt METAR LFBO 021830Z AUTO 02001KT 9999 OVC047 06/03 Q1014 NOSIG
19:00
V
6 °C 10 km+ 4.700 ft 030° 030° 2 kt METAR LFBO 021800Z AUTO 03002KT 9999 OVC047 06/03 Q1015 NOSIG
18:30
V
6 °C 10 km+ 4.800 ft 360° 360° 2 kt METAR LFBO 021730Z AUTO 36002KT 9999 OVC048 06/03 Q1015 TEMPO BKN013
18:00
V
6 °C 10 km+ 4.800 ft Var Var 3 kt METAR LFBO 021700Z AUTO VRB03KT 9999 FEW016 OVC048 06/04 Q1015 TEMPO BKN013
17:30
V
6 °C 10 km+ 4.800 ft 310° 310° 4 kt METAR LFBO 021630Z AUTO 31004KT 9999 FEW016 OVC048 06/04 Q1015 TEMPO BKN013
17:00
V
7 °C 10 km+ 4.800 ft Var Var 2 kt METAR LFBO 021600Z AUTO VRB02KT 9999 FEW016 OVC048 07/03 Q1015 TEMPO BKN013
16:30
M
7 °C 10 km+ 1.700 ft Var Var 3 kt METAR LFBO 021530Z AUTO VRB03KT 9999 BKN017 OVC048 07/03 Q1015 TEMPO BKN013
16:00
V
7 °C 10 km+ 4.800 ft Var 000° 0 kt METAR LFBO 021500Z AUTO 00000KT 9999 FEW015 OVC048 07/03 Q1015 TEMPO BKN013
15:30
V
7 °C 10 km+ 4.800 ft Var 000° 0 kt METAR LFBO 021430Z AUTO 00000KT 9999 OVC048 07/03 Q1015 TEMPO BKN013
15:00
V
7 °C 10 km+ 4.800 ft Var 000° 0 kt METAR LFBO 021400Z AUTO 00000KT 9999 FEW016 OVC048 07/03 Q1015 TEMPO BKN013
14:30
M
7 °C 10 km+ 1.500 ft Var 000° 0 kt METAR LFBO 021330Z AUTO 00000KT 9999 BKN015 OVC048 07/03 Q1016 TEMPO BKN013
14:00
M
7 °C 10 km+ 1.500 ft Var Var 1 kt METAR LFBO 021300Z AUTO VRB01KT 9999 BKN015 OVC048 07/03 Q1016 TEMPO BKN013
13:30
M
7 °C 10 km+ 1.400 ft Var Var 1 kt METAR LFBO 021230Z AUTO VRB01KT 9999 OVC014 07/03 Q1016 NOSIG
13:00
M
6 °C 10 km+ 1.300 ft Var Var 2 kt METAR LFBO 021200Z AUTO VRB02KT 9999 FEW002 OVC013 06/03 Q1016 NOSIG
12:30
M
6 °C 10 km+ 1.200 ft 210° 210° 4 kt METAR LFBO 021130Z AUTO 21004KT 180V240 9999 OVC012 06/03 Q1017 BECMG BKN016
12:00
M
6 °C 10 km+ 1.400 ft 220° 220° 4 kt METAR LFBO 021100Z AUTO 22004KT 180V260 9999 OVC014 06/04 Q1017 BECMG BKN016
11:30
M
6 °C 10 km+ 1.400 ft 210° 210° 6 kt METAR LFBO 021030Z AUTO 21006KT 9999 OVC014 06/03 Q1018 BECMG BKN016
11:00
M
6 °C 10 km+ 1.100 ft 210° 210° 7 kt METAR LFBO 021000Z AUTO 21007KT 9999 OVC011 06/03 Q1018 BECMG BKN016
10:30
M
6 °C 10 km+ 1.400 ft 220° 220° 6 kt METAR LFBO 020930Z AUTO 22006KT 200V280 9999 OVC014 06/03 Q1018 BECMG BKN016
10:00
M
6 °C 10 km+ 1.300 ft 210° 210° 7 kt METAR LFBO 020900Z AUTO 21007KT 9999 OVC013 06/03 Q1018 NOSIG
09:30
M
6 °C 10 km+ 1.200 ft 260° 260° 6 kt METAR LFBO 020830Z AUTO 26006KT 9999 OVC012 06/03 Q1018 NOSIG
09:00
M
5 °C 10 km+ 1.300 ft 250° 250° 4 kt METAR LFBO 020800Z AUTO 25004KT 210V280 9999 OVC013 05/03 Q1018 TEMPO BKN008
08:30
M
5 °C 10 km+ 1.300 ft 270° 270° 4 kt METAR LFBO 020730Z AUTO 27004KT 240V300 9999 OVC013 05/03 Q1018 BECMG BKN008 OVC012
08:00
M
5 °C 10 km+ 1.500 ft 290° 290° 4 kt METAR LFBO 020700Z AUTO 29004KT 9999 OVC015 05/03 Q1018 BECMG BKN008 OVC012
07:30
M
5 °C 10 km+ 1.500 ft 290° 290° 4 kt METAR LFBO 020630Z AUTO 29004KT 250V320 9999 OVC015 05/03 Q1018 BECMG BKN008 OVC012
07:00
M
5 °C 10 km+ 1.200 ft 270° 270° 4 kt METAR LFBO 020600Z AUTO 27004KT 9999 OVC012 05/04 Q1018 TEMPO 4000 BR OVC004
06:30
M
5 °C 10 km+ 1.000 ft 240° 240° 4 kt METAR LFBO 020530Z AUTO 24004KT 200V280 9999 BKN010 OVC014 05/04 Q1018 TEMPO 4000 BR OVC004
06:00
I
5 °C 10 km+ 900 ft 220° 220° 4 kt METAR LFBO 020500Z AUTO 22004KT 9999 OVC009 05/04 Q1018 TEMPO 4000 BR OVC004
05:30
I
5 °C 10 km+ 900 ft 220° 220° 3 kt METAR LFBO 020430Z AUTO 22003KT 9999 OVC009 05/04 Q1018 TEMPO 4000 BR OVC004
05:00
I
5 °C 10 km+ 900 ft 210° 210° 4 kt METAR LFBO 020400Z AUTO 21004KT 9999 OVC009 05/04 Q1018 TEMPO 4000 BR OVC004
04:30
I
5 °C 10 km+ 900 ft 210° 210° 4 kt METAR LFBO 020330Z AUTO 21004KT 9999 OVC009 05/04 Q1018 TEMPO 4000 BR OVC004
04:00
I
5 °C 10 km+ 900 ft 220° 220° 4 kt METAR LFBO 020300Z AUTO 22004KT 9999 OVC009 05/04 Q1019 TEMPO 4000 BR OVC004
03:30
I
5 °C 10 km+ 900 ft 230° 230° 4 kt METAR LFBO 020230Z AUTO 23004KT 9999 OVC009 05/04 Q1019 TEMPO 4000 BR OVC004
03:00
M
5 °C 10 km+ 1.000 ft 230° 230° 3 kt METAR LFBO 020200Z AUTO 23003KT 9999 OVC010 05/04 Q1019 TEMPO 4000 BR OVC004
02:30
M
5 °C 10 km+ 1.000 ft 240° 240° 2 kt METAR LFBO 020130Z AUTO 24002KT 9999 BKN010 OVC052 05/04 Q1019 TEMPO 4000 BR OVC004
02:00
I
5 °C 10 km+ 900 ft Var Var 3 kt METAR LFBO 020100Z AUTO VRB03KT 9999 OVC009 05/04 Q1019 TEMPO 4000 BR OVC004
01:30
I
5 °C 10 km+ 800 ft Var Var 3 kt METAR LFBO 020030Z AUTO VRB03KT 9999 OVC008 05/04 Q1019 TEMPO 4000 BR OVC004
01:00
I
5 °C 10 km+ 800 ft 280° 280° 3 kt METAR LFBO 020000Z AUTO 28003KT 9999 OVC008 05/04 Q1020 NOSIG
00:30
I
5 °C 10 km+ 700 ft 290° 290° 3 kt METAR LFBO 012330Z AUTO 29003KT 9999 OVC007 05/04 Q1020 TEMPO 0900 FG OVC001
00:00
I
5 °C 10 km+ 800 ft 300° 300° 4 kt METAR LFBO 012300Z AUTO 30004KT 9999 OVC008 05/04 Q1020 TEMPO 0900 FG OVC001

1 de dezembro de 2022

Hora Código Clima Temp. Visibilidade Tecto Vento METAR/SPECI
23:30
I
5 °C 10 km+ 800 ft 280° 280° 4 kt METAR LFBO 012230Z AUTO 28004KT 240V300 9999 OVC008 05/04 Q1020 TEMPO 0900 FG OVC001
23:00
I
5 °C 10 km+ 900 ft 290° 290° 4 kt METAR LFBO 012200Z AUTO 29004KT 9999 OVC009 05/04 Q1020 BECMG 3000 BR OVC004
22:30
I
5 °C 10 km+ 900 ft 260° 260° 4 kt METAR LFBO 012130Z AUTO 26004KT 9999 OVC009 05/04 Q1020 BECMG 3000 BR OVC004
22:00
I
5 °C 10 km+ 800 ft 280° 280° 5 kt METAR LFBO 012100Z AUTO 28005KT 9999 OVC008 05/04 Q1020 BECMG 3000 BR OVC004
21:30
I
5 °C 10 km+ 800 ft 270° 270° 5 kt METAR LFBO 012030Z AUTO 27005KT 9999 OVC008 05/04 Q1020 BECMG 3000 BR OVC004
21:00
I
5 °C 10 km+ 800 ft 270° 270° 5 kt METAR LFBO 012000Z AUTO 27005KT 9999 OVC008 05/04 Q1020 NOSIG
20:30
I
6 °C 10 km+ 800 ft 280° 280° 5 kt METAR LFBO 011930Z AUTO 28005KT 210V300 9999 OVC008 06/04 Q1020 NOSIG
20:00
I
6 °C 10 km+ 800 ft 280° 280° 5 kt METAR LFBO 011900Z AUTO 28005KT 9999 OVC008 06/04 Q1020 NOSIG
19:30
I
6 °C 10 km+ 900 ft 260° 260° 5 kt METAR LFBO 011830Z AUTO 26005KT 9999 OVC009 06/04 Q1020 NOSIG
19:00
I
6 °C 10 km+ 900 ft 280° 280° 5 kt METAR LFBO 011800Z AUTO 28005KT 240V300 9999 OVC009 06/04 Q1020 NOSIG
18:30
I
6 °C 10 km+ 900 ft 280° 280° 6 kt METAR LFBO 011730Z AUTO 28006KT 240V310 9999 OVC009 06/04 Q1020 NOSIG
18:00
I
6 °C 10 km+ 900 ft 280° 280° 7 kt METAR LFBO 011700Z AUTO 28007KT 9999 OVC009 06/04 Q1020 NOSIG
17:30
M
6 °C 10 km+ 1.000 ft 280° 280° 7 kt METAR LFBO 011630Z AUTO 28007KT 240V300 9999 OVC010 06/04 Q1020 NOSIG
17:00
M
6 °C 10 km+ 1.000 ft 290° 290° 5 kt METAR LFBO 011600Z AUTO 29005KT 9999 OVC010 06/04 Q1020 NOSIG
16:30
M
6 °C 10 km+ 1.100 ft 290° 290° 5 kt METAR LFBO 011530Z AUTO 29005KT 9999 OVC011 06/04 Q1020 BECMG BKN008
16:00
M
6 °C 10 km+ 1.100 ft 320° 320° 5 kt METAR LFBO 011500Z AUTO 32005KT 300V360 9999 OVC011 06/04 Q1019 NOSIG
15:30
M
6 °C 10 km+ 1.100 ft 350° 350° 4 kt METAR LFBO 011430Z AUTO 35004KT 320V020 9999 OVC011 06/04 Q1019 NOSIG
15:00
M
6 °C 10 km+ 1.100 ft 360° 360° 3 kt METAR LFBO 011400Z AUTO 36003KT 320V040 9999 OVC011 06/04 Q1020 NOSIG
14:30
M
6 °C 10 km+ 1.100 ft 360° 360° 3 kt METAR LFBO 011330Z AUTO 36003KT 310V040 9999 OVC011 06/04 Q1020 NOSIG
14:00
M
6 °C 10 km+ 1.000 ft 340° 340° 4 kt METAR LFBO 011300Z AUTO 34004KT 300V030 9999 OVC010 06/04 Q1020 NOSIG
13:30
M
6 °C 10 km+ 1.000 ft 330° 330° 4 kt METAR LFBO 011230Z AUTO 33004KT 290V010 9999 OVC010 06/03 Q1020 NOSIG
13:00
I
6 °C 10 km+ 900 ft 330° 330° 5 kt METAR LFBO 011200Z AUTO 33005KT 290V360 9999 OVC009 06/03 Q1020 BECMG BKN011
12:30
I
5 °C 10 km+ 800 ft 310° 310° 5 kt METAR LFBO 011130Z AUTO 31005KT 280V340 9999 OVC008 05/03 Q1020 BECMG BKN012
12:00
I
5 °C 10 km+ 700 ft 280° 280° 5 kt METAR LFBO 011100Z AUTO 28005KT 230V320 9999 OVC007 05/04 Q1020 BECMG OVC004
11:30
I
5 °C 10 km+ 700 ft 280° 280° 4 kt METAR LFBO 011030Z AUTO 28004KT 240V320 9999 OVC007 05/03 Q1021 BECMG OVC004
11:00
I
4 °C 10 km+ 600 ft 310° 310° 4 kt METAR LFBO 011000Z AUTO 31004KT 260V350 9999 OVC006 04/03 Q1021 BECMG OVC004

Nós e terceiros acompanhamos seu comportamento na internet em nosso site com cookies. Se você continuar, nós assumimos que você concorda com nosso política de cookies.